x

Tanner Bank - 121nm West Of San Diego, Ca (46047) Wave Buoy

4:50am - Tue 25th Jul 2017 All times are PDT. -7 hours from GMT.

  • Sig Wave height 4.3ft
  • Swell Direction
  • Peak Period 10s
  • Average Period 8s
  • Wind
    4mph, 7mph gusts
  • Sea Temp 64°f
  • Air Temp 62°f
  • Sea Pressure 1013.9mb
  • Tanner Bank - 121nm West Of San Diego, Ca
  • Tanner Bank - 121nm West Of San Diego, Ca

More Historic Weather Station data

Upgrade to MSW Pro to gain access to the past 30 days of data for over 8000 Wavebouys and Weather Stations around the globe.

Join Pro

Comparision Forecast

View Surf forecast
   
Tue 07/25 4:50am 4.5ft 10s 8s 4 7 mph 1013.9mb 64f 62f
3:50am 4.5ft 11s 9s 2 4 mph 1013.9mb 64f 61f
2:50am 4ft 10s 8s 2 4 mph 1014mb 64f 61f
1:50am 4.5ft 11s 9s 9 11 mph 1014mb 64f 62f
12:50am 3.5ft 11s 8s 7 9 mph 1014.1mb 64f 62f
Mon 07/24 11:50pm 4.5ft 8s 8s 7 9 mph 1014mb 64f 63f
10:50pm 4ft 10s 8s 7 9 mph 1013.8mb 64f 63f
9:50pm 3.5ft 14s 8s 4 4 mph 1013.3mb 64f 62f
8:50pm 3.5ft 9s 8s 7 9 mph 1012.7mb 64f 62f
7:50pm 4ft 9s 8s 7 9 mph 1012.2mb 64f 62f
6:50pm 4ft 8s 8s 7 9 mph 1011.8mb 65f 62f
5:50pm 4.5ft 10s 8s 4 7 mph 1011.8mb 65f 62f
4:50pm 5ft 9s 8s 4 9 mph 1012.1mb 65f 62f
3:50pm 4.5ft 9s 8s 2 4 mph 1012.4mb 65f 63f
2:50pm 4.5ft 9s 8s 2 4 mph 1012.8mb 64f 63f
1:50pm 4.5ft 8s 8s 2 4 mph 1013.3mb 64f 63f
12:50pm 4.5ft 9s 8s 4 7 mph 1013.4mb 64f 62f
11:50am 4.5ft 9s 8s 4 4 mph 1013.6mb 63f 62f
10:50am 4.5ft 9s 8s 4 4 mph 1013.9mb 63f 62f
9:50am 4ft 9s 8s 4 7 mph 1013.7mb 63f 61f
8:50am 4ft 10s 8s 2 4 mph 1013.6mb 63f 61f
7:50am 4.5ft 9s 8s 7 9 mph 1012.8mb 63f 61f
6:50am 4ft 10s 8s 4 7 mph 1012.7mb 63f 61f
5:50am 4ft 10s 8s 2 4 mph 1012.3mb 63f 61f
4:50am 4ft 9s 8s 4 4 mph 1012.1mb 63f 61f
3:50am 4ft 8s 8s 4 7 mph 1012mb 63f 61f
2:50am 4.5ft 9s 8s 2 4 mph 1012mb 63f 61f
1:50am 4ft 10s 7s 2 4 mph 1012.2mb 63f 61f
12:50am 4ft 8s 7s 4 7 mph 1012.3mb 63f 61f
Sun 07/23 11:50pm 3.5ft 8s 7s 4 7 mph 1012.5mb 63f 61f
10:50pm 4ft 8s 7s 7 9 mph 1012.7mb 63f 62f
9:50pm 4ft 8s 7s 7 9 mph 1012.2mb 63f 61f
8:50pm 3.5ft 10s 7s 7 9 mph 1011.7mb 63f 62f
7:50pm 4ft 8s 7s 9 11 mph 1011mb 63f 62f
6:50pm 3.5ft 8s 7s 11 13 mph 1010.6mb 64f 62f
5:50pm 3.5ft 8s 7s 11 13 mph 1010.8mb 64f 62f
4:50pm 4ft 7s 7s 9 11 mph 1011.2mb 64f 62f
3:50pm 4ft 14s 7s 7 9 mph 1011.6mb 64f 62f
2:50pm 4.5ft 8s 7s 4 7 mph 1012.2mb 64f 62f
1:50pm 4.5ft 8s 7s 7 7 mph 1012.2mb 64f 61f
12:50pm 4.5ft 8s 7s 7 9 mph 1012.5mb 63f 61f
11:50am 4.5ft 8s 7s 4 7 mph 1012.8mb 63f 61f
10:50am 4.5ft 8s 7s 7 9 mph 1012.8mb 63f 60f
9:50am 4.5ft 9s 7s 7 11 mph 1012.9mb 63f 60f
8:50am 4.5ft 8s 6s 7 9 mph 1013mb 63f 60f
7:50am 4.5ft 8s 6s 9 11 mph 1012.4mb 63f 60f
6:50am 4.5ft 9s 6s 9 11 mph 1012.3mb 62f 60f
5:50am 4.5ft 8s 6s 7 9 mph 1012.1mb 63f 60f
4:50am 4.5ft 8s 6s 9 11 mph 1011.9mb 63f 60f
3:50am 5ft 7s 6s 9 13 mph 1011.7mb 63f 60f
2:50am 5.5ft 8s 6s 11 16 mph 1012.1mb 63f 60f
1:50am 5ft 8s 6s 11 16 mph 1011.8mb 63f 60f
12:50am 5ft 8s 6s 13 16 mph 1012.2mb 63f 61f
Sat 07/22 11:50pm 5.5ft 8s 6s 11 16 mph 1012.8mb 63f 60f
10:50pm 6ft 8s 6s 11 16 mph 1012.7mb 63f 61f
9:50pm 6ft 8s 6s 11 13 mph 1012.5mb 63f 61f
8:50pm 6ft 8s 6s 13 18 mph 1012.3mb 63f 60f
7:50pm 6ft 8s 6s 16 20 mph 1011.6mb 63f 60f
6:50pm 6ft 8s 6s 18 20 mph 1011.3mb 63f 60f
5:50pm 6ft 8s 6s 16 20 mph 1011.4mb 63f 61f
4:50pm 6ft 8s 6s 13 18 mph 1012.1mb 63f 61f
3:50pm 6ft 8s 6s 16 18 mph 1012.4mb 63f 61f
2:50pm 6.5ft 8s 6s 18 20 mph 1012.8mb 63f 61f
1:50pm 6.5ft 8s 6s 18 22 mph 1013.2mb 63f 61f
12:50pm 7ft 8s 6s 16 20 mph 1013.9mb 63f 61f
11:50am 7ft 9s 7s 18 20 mph 1013.8mb 63f 61f
10:50am 7ft 9s 7s 16 20 mph 1013.8mb 63f 61f
9:50am 7.5ft 8s 7s 13 18 mph 1013.9mb 63f 61f
8:50am 7.5ft 8s 6s 13 18 mph 1013.8mb 63f 61f
7:50am 7.5ft 8s 6s 18 20 mph 1013.2mb 63f 61f
6:50am 7ft 9s 6s 18 20 mph 1012.9mb 63f 61f
5:50am 7ft 8s 6s 16 20 mph 1012.6mb 63f 62f
4:50am 7ft 8s 6s 20 25 mph 1012.4mb 63f 62f
3:50am 7ft 8s 6s 20 22 mph 1012.6mb 63f 62f
2:50am 6.5ft 8s 6s 18 20 mph 1012.9mb 63f 62f
1:50am 7.5ft 8s 6s 16 20 mph 1013.2mb 63f 62f
12:50am 8ft 8s 6s 16 20 mph 1013.3mb 63f 62f
Fri 07/21 11:50pm 8ft 8s 6s 16 20 mph 1013.5mb 63f 62f
10:50pm 8ft 8s 6s 18 20 mph 1013.5mb 63f 62f
9:50pm 8ft 8s 6s 18 22 mph 1013.2mb 63f 62f
8:50pm 7ft 8s 6s 20 25 mph 1012.8mb 63f 62f
7:50pm 7ft 8s 6s 22 27 mph 1012.4mb 63f 62f
6:50pm 6.5ft 8s 6s 20 25 mph 1012.6mb 63f 61f
5:50pm 6ft 9s 6s 20 25 mph 1012.6mb 63f 61f
4:50pm 5.5ft 8s 6s 20 25 mph 1013.2mb 63f 61f
3:50pm 5ft 8s 6s 18 22 mph 1013.7mb 63f 61f
2:50pm 6ft 8s 6s 18 20 mph 1014.1mb 63f 62f
1:50pm 6.5ft 8s 6s 16 18 mph 1014.7mb 63f 62f